Lobo Marinho — CQTW — position and weather

sailwx.info

Track history (hours):
 
Tides and Currents Weather Stations Pressure Air Temp Water Temp Dewpoint Dewpoint Depression Visibility Wind Speed Wind Dir Waves Ship Positions

Lobo Marinho

Last reported at 2017-Oct-29 21:54 UTC. Time now 2017-Nov-17 17:47 UTC.
Position N 32°38' W 016°55'.
Warning: this ship's position is 18 days out of date.

Length 112 m; draft 4.8 m.

Type: Passenger vessel. MMSI: 255997000.

Date/timePositionNaut miles runAvg speedWind from/ knotsBaromVisibWave heightAir tempDewpointWater temp
2017-Oct-29 21:54N 32°38' W 016°55'0 0.0
2017-Oct-29 21:30N 32°38' W 016°55'811.7
2017-Oct-29 20:51N 32°39' W 016°46'33 3.9
2017-Oct-29 12:11N 33°04' W 016°19'0 0.0
2017-Oct-29 11:59N 33°04' W 016°19'0 0.0
2017-Oct-29 11:29N 33°04' W 016°19'0 0.0
2017-Oct-29 10:59N 33°04' W 016°19'0 0.0
2017-Oct-29 10:30N 33°04' W 016°19'1916.0
2017-Oct-29 09:19N 32°48' W 016°33'818.5
2017-Oct-29 08:52N 32°42' W 016°40'10 0.7
2017-Oct-28 19:00N 32°38' W 016°50'918.8
2017-Oct-28 18:30N 32°42' W 016°40'28 9.0
2017-Oct-28 15:26N 33°04' W 016°19'0 0.0
2017-Oct-28 14:56N 33°04' W 016°19'0 0.0
2017-Oct-28 13:28N 33°04' W 016°19'0 0.0
2017-Oct-28 09:31N 33°04' W 016°19'0 0.1
2017-Oct-28 09:24N 33°04' W 016°19'39 6.7
2017-Oct-28 03:29N 32°38' W 016°55'0 0.0
2017-Oct-28 02:59N 32°38' W 016°55'0 0.0
2017-Oct-28 02:29N 32°38' W 016°55'0 0.0
2017-Oct-28 01:47N 32°38' W 016°55'0 0.0
2017-Oct-28 01:17N 32°38' W 016°55'6 3.0
2017-Oct-27 23:25N 32°38' W 016°48'6 0.8
2017-Oct-27 16:45N 32°38' W 016°55'0 0.0
2017-Oct-27 16:15N 32°38' W 016°55'0 0.0
2017-Oct-27 15:45N 32°38' W 016°55'  
Track history (hours):
 
Tides and Currents Weather Stations Pressure Air Temp Water Temp Dewpoint Dewpoint Depression Visibility Wind Speed Wind Dir Waves Ship Positions

Lobo Marinho

Last reported at 2017-Oct-29 21:54 UTC. Time now 2017-Nov-17 17:47 UTC.
Position N 32°38' W 016°55'.
Warning: this ship's position is 18 days out of date.

Length 112 m; draft 4.8 m.

Type: Passenger vessel. MMSI: 255997000.

Date/timePositionNaut miles runAvg speedWind from/ knotsBaromVisibWave heightAir tempDewpointWater temp
2017-Oct-29 21:54N 32°38' W 016°55'0 0.0
2017-Oct-29 21:30N 32°38' W 016°55'811.7
2017-Oct-29 20:51N 32°39' W 016°46'33 3.9
2017-Oct-29 12:11N 33°04' W 016°19'0 0.0
2017-Oct-29 11:59N 33°04' W 016°19'0 0.0
2017-Oct-29 11:29N 33°04' W 016°19'0 0.0
2017-Oct-29 10:59N 33°04' W 016°19'0 0.0
2017-Oct-29 10:30N 33°04' W 016°19'1916.0
2017-Oct-29 09:19N 32°48' W 016°33'818.5
2017-Oct-29 08:52N 32°42' W 016°40'10 0.7
2017-Oct-28 19:00N 32°38' W 016°50'918.8
2017-Oct-28 18:30N 32°42' W 016°40'28 9.0
2017-Oct-28 15:26N 33°04' W 016°19'0 0.0
2017-Oct-28 14:56N 33°04' W 016°19'0 0.0
2017-Oct-28 13:28N 33°04' W 016°19'0 0.0
2017-Oct-28 09:31N 33°04' W 016°19'0 0.1
2017-Oct-28 09:24N 33°04' W 016°19'39 6.7
2017-Oct-28 03:29N 32°38' W 016°55'0 0.0
2017-Oct-28 02:59N 32°38' W 016°55'0 0.0
2017-Oct-28 02:29N 32°38' W 016°55'0 0.0
2017-Oct-28 01:47N 32°38' W 016°55'0 0.0
2017-Oct-28 01:17N 32°38' W 016°55'6 3.0
2017-Oct-27 23:25N 32°38' W 016°48'6 0.8
2017-Oct-27 16:45N 32°38' W 016°55'0 0.0
2017-Oct-27 16:15N 32°38' W 016°55'0 0.0
2017-Oct-27 15:45N 32°38' W 016°55'  

Dump ship's entire track history